Time;durP1;ratioP1;P1;durP2;ratioP2;P2;SDS_P1;SDS_P2;PMS_P1;PMS_P2;Temp;Humidity;BMP_temperature;BMP_pressure;BME280_temperature;BME280_humidity;BME280_pressure;Samples;Min_cycle;Max_cycle;Signal;HPM_P1;HPM_P2
2022/01/04 00:00:59;;;;;;;25.07;11.30;;;9.70;99.90;;;;;;4943518;28;20225;-77
2022/01/04 00:03:26;;;;;;;22.30;11.40;;;9.70;99.90;;;;;;4952751;29;20288;-78
2022/01/04 00:05:53;;;;;;;20.80;11.63;;;9.70;99.90;;;;;;4958305;28;20427;-77
2022/01/04 00:08:20;;;;;;;32.73;12.47;;;9.70;99.90;;;;;;4959239;28;20274;-78
2022/01/04 00:10:47;;;;;;;24.30;11.77;;;9.70;99.90;;;;;;4951040;28;20687;-77
2022/01/04 00:13:23;;;;;;;27.80;13.33;;;9.70;99.90;;;;;;4946971;28;20311;-78
2022/01/04 00:15:55;;;;;;;28.53;12.10;;;9.80;99.90;;;;;;4936351;28;20298;-77
2022/01/04 00:18:23;;;;;;;28.17;12.40;;;9.70;99.90;;;;;;4954895;28;20287;-78
2022/01/04 00:20:51;;;;;;;25.10;12.93;;;9.70;99.90;;;;;;4953778;28;21242;-78
2022/01/04 00:23:18;;;;;;;22.17;12.67;;;9.70;99.90;;;;;;4956578;28;20635;-78
2022/01/04 00:25:47;;;;;;;24.30;12.97;;;9.70;99.90;;;;;;4958480;28;20249;-77
2022/01/04 00:28:17;;;;;;;33.73;13.80;;;9.80;99.90;;;;;;4959277;28;20212;-78
2022/01/04 00:30:44;;;;;;;23.90;13.23;;;9.80;99.90;;;;;;4944818;28;20229;-78
2022/01/04 00:33:14;;;;;;;30.60;12.63;;;9.80;99.90;;;;;;4956981;28;20205;-77
2022/01/04 00:35:41;;;;;;;29.07;13.37;;;9.80;99.90;;;;;;4957723;28;20220;-77
2022/01/04 00:38:08;;;;;;;26.37;13.00;;;9.80;99.90;;;;;;4958105;28;20302;-78
2022/01/04 00:40:35;;;;;;;28.97;13.87;;;9.70;99.90;;;;;;4962987;28;20267;-79
2022/01/04 00:43:06;;;;;;;26.27;13.43;;;9.70;99.90;;;;;;4941422;28;20674;-77
2022/01/04 00:45:36;;;;;;;24.03;13.23;;;9.70;99.90;;;;;;4941859;28;20301;-77
2022/01/04 00:50:36;;;;;;;33.53;14.80;;;9.70;99.90;;;;;;4955443;28;20323;-77
2022/01/04 00:53:05;;;;;;;32.50;13.53;;;9.70;99.90;;;;;;4952843;28;20215;-77
2022/01/04 00:55:33;;;;;;;30.37;14.73;;;9.70;99.90;;;;;;4943658;28;20291;-78
2022/01/04 00:58:09;;;;;;;31.43;13.60;;;9.70;99.90;;;;;;4940950;29;20219;-77
2022/01/04 01:00:37;;;;;;;36.60;13.93;;;9.70;99.90;;;;;;4958131;28;20212;-77
2022/01/04 01:03:05;;;;;;;29.60;13.83;;;9.70;99.90;;;;;;4953845;28;20279;-77
2022/01/04 01:05:33;;;;;;;32.63;13.90;;;9.70;99.90;;;;;;4962067;28;20279;-77
2022/01/04 01:08:01;;;;;;;33.10;15.17;;;9.70;99.90;;;;;;4938784;28;20307;-77
2022/01/04 01:10:43;;;;;;;31.90;15.07;;;9.70;99.90;;;;;;4959910;28;20314;-77
2022/01/04 01:13:10;;;;;;;28.87;14.67;;;9.70;99.90;;;;;;4959194;28;20516;-76
2022/01/04 01:15:40;;;;;;;33.77;13.73;;;9.70;99.90;;;;;;4954160;28;20274;-77
2022/01/04 01:18:07;;;;;;;28.40;15.37;;;9.70;99.90;;;;;;4953953;28;20255;-78
2022/01/04 01:20:34;;;;;;;37.80;15.33;;;9.70;99.90;;;;;;4936127;29;20716;-79
2022/01/04 01:23:06;;;;;;;34.73;14.97;;;9.60;99.90;;;;;;4954392;28;20266;-77
2022/01/04 01:25:33;;;;;;;31.63;14.20;;;9.70;99.90;;;;;;4953573;28;20295;-77
2022/01/04 01:28:00;;;;;;;29.67;14.47;;;9.70;99.90;;;;;;4955746;28;20295;-77
2022/01/04 01:30:28;;;;;;;28.27;14.57;;;9.70;99.90;;;;;;4956942;28;20245;-76
2022/01/04 01:32:55;;;;;;;29.83;15.13;;;9.70;99.90;;;;;;4938993;28;20620;-77
2022/01/04 01:35:22;;;;;;;29.43;14.23;;;9.70;99.90;;;;;;4953131;28;20314;-78
2022/01/04 01:37:49;;;;;;;28.53;14.13;;;9.70;99.90;;;;;;4951757;29;20242;-77
2022/01/04 01:40:17;;;;;;;30.03;14.60;;;9.60;99.90;;;;;;4962742;28;20204;-77
2022/01/04 01:42:44;;;;;;;28.60;15.23;;;9.60;99.90;;;;;;4956055;28;20260;-79
2022/01/04 01:45:12;;;;;;;31.03;15.07;;;9.60;99.90;;;;;;4953098;28;20220;-77
2022/01/04 01:47:41;;;;;;;32.40;15.47;;;9.60;99.90;;;;;;4956853;28;20214;-78
2022/01/04 01:50:11;;;;;;;27.80;14.13;;;9.60;99.90;;;;;;4937177;29;20236;-77
2022/01/04 01:52:40;;;;;;;31.13;15.53;;;9.60;99.90;;;;;;4965115;28;20664;-77
2022/01/04 01:55:09;;;;;;;29.17;14.93;;;9.60;99.90;;;;;;4957410;28;20208;-76
2022/01/04 01:57:36;;;;;;;27.53;15.80;;;9.50;99.90;;;;;;4946574;29;20204;-77
2022/01/04 02:00:09;;;;;;;32.27;15.17;;;9.60;99.90;;;;;;4959367;28;20248;-78
2022/01/04 02:02:36;;;;;;;30.43;14.33;;;9.60;99.90;;;;;;4952613;28;20212;-78
2022/01/04 02:05:08;;;;;;;29.43;15.17;;;9.60;99.90;;;;;;4944901;29;20240;-78
2022/01/04 02:07:36;;;;;;;27.47;14.07;;;9.60;99.90;;;;;;4954235;28;20203;-77
2022/01/04 02:10:06;;;;;;;34.63;15.63;;;9.60;99.90;;;;;;4961826;28;20259;-78
2022/01/04 02:12:36;;;;;;;30.60;15.53;;;9.60;99.90;;;;;;4960115;28;20206;-78
2022/01/04 02:15:06;;;;;;;31.17;14.37;;;9.60;99.90;;;;;;4954699;28;20250;-77
2022/01/04 02:17:32;;;;;;;25.63;14.70;;;9.50;99.90;;;;;;4949651;28;20299;-77
2022/01/04 02:20:00;;;;;;;31.37;13.83;;;9.50;99.90;;;;;;4952022;28;20255;-79
2022/01/04 02:22:28;;;;;;;29.27;14.63;;;9.40;99.90;;;;;;4939316;28;20290;-77
2022/01/04 02:24:55;;;;;;;31.27;14.70;;;9.50;99.90;;;;;;4953938;28;20210;-78
2022/01/04 02:27:21;;;;;;;30.60;15.83;;;9.40;99.90;;;;;;4957314;28;20298;-78
2022/01/04 02:29:48;;;;;;;28.20;13.60;;;9.50;99.90;;;;;;4958956;28;20326;-76
2022/01/04 02:32:16;;;;;;;26.20;13.53;;;9.50;99.90;;;;;;4953659;28;20243;-79
2022/01/04 02:34:48;;;;;;;29.70;14.70;;;9.50;99.90;;;;;;4952474;28;20256;-77
2022/01/04 02:37:23;;;;;;;27.50;14.63;;;9.50;99.90;;;;;;4951713;28;20215;-78
2022/01/04 02:39:51;;;;;;;23.10;13.40;;;9.40;99.90;;;;;;4955416;28;20210;-77
2022/01/04 02:42:18;;;;;;;28.87;13.93;;;9.50;99.90;;;;;;4961276;28;20278;-78
2022/01/04 02:44:45;;;;;;;24.50;13.13;;;9.50;99.90;;;;;;4939596;28;20257;-78
2022/01/04 02:47:13;;;;;;;25.23;13.63;;;9.50;99.90;;;;;;4939165;28;20203;-77
2022/01/04 02:49:41;;;;;;;32.10;14.37;;;9.60;99.90;;;;;;4949873;28;20313;-77
2022/01/04 02:52:08;;;;;;;26.27;14.43;;;9.60;99.90;;;;;;4950986;28;20576;-77
2022/01/04 02:54:35;;;;;;;23.80;13.13;;;9.60;99.90;;;;;;4955720;28;20719;-76
2022/01/04 02:57:06;;;;;;;28.63;13.80;;;9.50;99.90;;;;;;4953415;28;20215;-77
2022/01/04 02:59:34;;;;;;;25.13;13.13;;;9.50;99.90;;;;;;4954974;28;20291;-78
2022/01/04 03:02:02;;;;;;;30.80;13.87;;;9.50;99.90;;;;;;4959077;28;20215;-77
2022/01/04 03:04:32;;;;;;;24.03;12.53;;;9.50;99.90;;;;;;4956443;28;20211;-77
2022/01/04 03:07:00;;;;;;;29.47;14.27;;;9.60;99.90;;;;;;4933989;29;20293;-78
2022/01/04 03:09:27;;;;;;;24.40;11.53;;;9.50;99.90;;;;;;4950810;28;20230;-78
2022/01/04 03:11:55;;;;;;;26.03;12.93;;;9.60;99.90;;;;;;4939553;28;20216;-77
2022/01/04 03:14:22;;;;;;;32.83;13.27;;;9.60;99.90;;;;;;4959713;28;20288;-77
2022/01/04 03:16:49;;;;;;;29.43;13.57;;;9.60;99.90;;;;;;4951770;29;20734;-78
2022/01/04 03:19:15;;;;;;;29.20;13.47;;;9.70;99.90;;;;;;4959951;28;20245;-79
2022/01/04 03:21:44;;;;;;;27.23;14.03;;;9.70;99.90;;;;;;4964292;28;20273;-77
2022/01/04 03:24:13;;;;;;;23.37;13.13;;;9.70;99.90;;;;;;4937609;28;20211;-77
2022/01/04 03:26:41;;;;;;;27.90;13.43;;;9.60;99.90;;;;;;4955437;28;20307;-78
2022/01/04 03:29:09;;;;;;;31.47;14.17;;;9.70;99.90;;;;;;4960440;28;20299;-78
2022/01/04 03:31:36;;;;;;;29.30;14.90;;;9.60;99.90;;;;;;4962571;28;20774;-76
2022/01/04 03:34:04;;;;;;;29.57;15.47;;;9.70;99.90;;;;;;4938122;28;20244;-78
2022/01/04 03:36:31;;;;;;;26.73;14.90;;;9.60;99.90;;;;;;4958680;28;20856;-78
2022/01/04 03:38:59;;;;;;;27.93;15.33;;;9.60;99.90;;;;;;4953640;28;20352;-77
2022/01/04 03:41:27;;;;;;;31.93;15.10;;;9.60;99.90;;;;;;4957824;28;20221;-78
2022/01/04 03:43:54;;;;;;;33.73;16.63;;;9.60;99.90;;;;;;4958986;28;20214;-76
2022/01/04 03:46:22;;;;;;;30.37;15.83;;;9.60;99.90;;;;;;4940847;29;20208;-78
2022/01/04 03:48:49;;;;;;;37.33;16.20;;;9.60;99.90;;;;;;4959090;28;20571;-77
2022/01/04 03:51:17;;;;;;;32.83;15.83;;;9.60;99.90;;;;;;4952902;29;20638;-78
2022/01/04 03:53:44;;;;;;;35.83;16.10;;;9.60;99.90;;;;;;4958083;28;20204;-77
2022/01/04 03:56:12;;;;;;;36.10;17.30;;;9.60;99.90;;;;;;4956507;28;20635;-78
2022/01/04 03:58:38;;;;;;;30.30;15.63;;;9.60;99.90;;;;;;4960271;28;20250;-78
2022/01/04 04:01:06;;;;;;;31.40;15.50;;;9.60;99.90;;;;;;4955226;28;20224;-78
2022/01/04 04:03:33;;;;;;;33.80;15.83;;;9.60;99.90;;;;;;4955888;28;20214;-78
2022/01/04 04:06:00;;;;;;;33.23;15.97;;;9.60;99.90;;;;;;4959370;28;20670;-77
2022/01/04 04:08:28;;;;;;;31.20;15.57;;;9.60;99.90;;;;;;4955041;28;20242;-78
2022/01/04 04:10:55;;;;;;;30.20;16.43;;;9.60;99.90;;;;;;4960933;28;20660;-77
2022/01/04 04:13:22;;;;;;;29.20;15.83;;;9.50;99.90;;;;;;4960556;28;20251;-77
2022/01/04 04:15:49;;;;;;;33.37;15.83;;;9.40;99.90;;;;;;4957297;28;20227;-77
2022/01/04 04:18:17;;;;;;;28.60;15.63;;;9.40;99.90;;;;;;4938909;29;20672;-78
2022/01/04 04:20:44;;;;;;;29.93;16.03;;;9.40;99.90;;;;;;4953348;28;20282;-78
2022/01/04 04:23:11;;;;;;;31.20;15.30;;;9.40;99.90;;;;;;4940911;28;20749;-77
2022/01/04 04:25:38;;;;;;;32.33;15.27;;;9.30;99.90;;;;;;4955098;28;20238;-78
2022/01/04 04:28:05;;;;;;;28.60;15.27;;;9.40;99.90;;;;;;4929775;29;20217;-77
2022/01/04 04:30:33;;;;;;;27.93;14.43;;;9.30;99.90;;;;;;4960326;28;20270;-77
2022/01/04 04:33:01;;;;;;;34.80;15.27;;;9.40;99.90;;;;;;4953845;28;20227;-77
2022/01/04 04:35:29;;;;;;;28.57;14.90;;;9.40;99.90;;;;;;4958042;28;20228;-79
2022/01/04 04:38:00;;;;;;;27.80;15.10;;;9.40;99.90;;;;;;4957491;28;20660;-78
2022/01/04 04:40:27;;;;;;;29.07;14.97;;;9.40;99.90;;;;;;4961186;28;20239;-78
2022/01/04 04:42:54;;;;;;;25.83;15.00;;;9.50;99.90;;;;;;4961593;28;20382;-79
2022/01/04 04:45:21;;;;;;;27.33;15.20;;;9.50;99.90;;;;;;4950555;28;20248;-78
2022/01/04 04:47:52;;;;;;;31.37;16.00;;;9.40;99.90;;;;;;4946547;28;20220;-77
2022/01/04 04:50:19;;;;;;;33.73;15.57;;;9.40;99.90;;;;;;4938442;28;20766;-79
2022/01/04 04:52:46;;;;;;;30.87;15.97;;;9.40;99.90;;;;;;4956558;28;20215;-78
2022/01/04 04:55:13;;;;;;;30.83;15.50;;;9.40;99.90;;;;;;4956660;28;20255;-77
2022/01/04 04:57:40;;;;;;;28.40;15.27;;;9.40;99.90;;;;;;4939036;28;20247;-79
2022/01/04 05:00:08;;;;;;;33.30;15.80;;;9.40;99.90;;;;;;4941272;29;20242;-78
2022/01/04 05:02:35;;;;;;;33.67;16.60;;;9.40;99.90;;;;;;4940226;28;20211;-78
2022/01/04 05:05:02;;;;;;;30.90;15.53;;;9.50;99.90;;;;;;4959203;28;20241;-78
2022/01/04 05:07:29;;;;;;;33.63;16.80;;;9.40;99.90;;;;;;4938831;29;20303;-77
2022/01/04 05:09:56;;;;;;;34.07;16.57;;;9.40;99.90;;;;;;4952967;28;20262;-77
2022/01/04 05:12:23;;;;;;;29.23;15.80;;;9.40;99.90;;;;;;4957535;28;20288;-78
2022/01/04 05:14:50;;;;;;;29.87;16.03;;;9.40;99.90;;;;;;4951314;28;20233;-77
2022/01/04 05:17:18;;;;;;;37.27;16.73;;;9.50;99.90;;;;;;4954060;28;20211;-78
2022/01/04 05:19:45;;;;;;;36.67;17.40;;;9.50;99.90;;;;;;4942048;28;20320;-78
2022/01/04 05:22:12;;;;;;;34.30;16.30;;;9.40;99.90;;;;;;4957876;28;20301;-78
2022/01/04 05:24:39;;;;;;;28.60;15.87;;;9.40;99.90;;;;;;4952958;28;20222;-78
2022/01/04 05:27:06;;;;;;;31.83;17.80;;;9.30;99.90;;;;;;4952913;28;20203;-77
2022/01/04 05:29:33;;;;;;;36.00;17.13;;;9.40;99.90;;;;;;4959305;28;20975;-78
2022/01/04 05:32:00;;;;;;;35.47;19.17;;;9.30;99.90;;;;;;4961866;28;20339;-78
2022/01/04 05:34:27;;;;;;;37.30;18.00;;;9.30;99.90;;;;;;4952859;28;20227;-78
2022/01/04 05:36:54;;;;;;;34.97;17.53;;;9.30;99.90;;;;;;4954299;28;20222;-78
2022/01/04 05:39:21;;;;;;;38.67;18.80;;;9.30;99.90;;;;;;4956517;28;20747;-77
2022/01/04 05:41:47;;;;;;;38.17;18.27;;;9.30;99.90;;;;;;4953112;28;20204;-79
2022/01/04 05:44:15;;;;;;;35.03;18.07;;;9.40;99.90;;;;;;4958537;28;20217;-77
2022/01/04 05:46:42;;;;;;;38.90;19.30;;;9.30;99.90;;;;;;4955499;28;20585;-79
2022/01/04 05:49:10;;;;;;;39.97;18.73;;;9.30;99.90;;;;;;4955107;28;20301;-78
2022/01/04 05:51:37;;;;;;;40.23;18.73;;;9.30;99.90;;;;;;4951876;28;20708;-78
2022/01/04 05:54:05;;;;;;;38.03;18.90;;;9.30;99.90;;;;;;4940008;28;20233;-78
2022/01/04 05:56:45;;;;;;;38.40;19.13;;;9.40;99.90;;;;;;5036692;27;20525;-78
2022/01/04 05:59:12;;;;;;;37.83;19.13;;;9.40;99.90;;;;;;5045622;28;20572;-79
2022/01/04 06:01:39;;;;;;;36.70;19.63;;;9.40;99.90;;;;;;5024367;28;20207;-78
2022/01/04 06:04:06;;;;;;;36.13;19.13;;;9.30;99.90;;;;;;5034501;28;20215;-78
2022/01/04 06:06:33;;;;;;;37.30;19.53;;;9.30;99.90;;;;;;5029788;28;20312;-78
2022/01/04 06:09:00;;;;;;;38.63;20.07;;;9.30;99.90;;;;;;5037804;28;20232;-78
2022/01/04 06:14:50;;;;;;;37.40;19.33;;;9.30;99.90;;;;;;5025341;28;20291;-78
2022/01/04 06:17:02;;;;;;;34.00;17.13;;;9.20;99.90;;;;;;5027749;28;20253;-77
2022/01/04 06:19:32;;;;;;;37.33;18.80;;;9.10;99.90;;;;;;5018182;28;20222;-78
2022/01/04 06:22:02;;;;;;;37.77;18.93;;;9.20;99.90;;;;;;5024728;28;20568;-79
2022/01/04 06:24:30;;;;;;;36.53;18.03;;;9.20;99.90;;;;;;5024029;28;20209;-78
2022/01/04 06:26:57;;;;;;;42.40;19.53;;;9.20;99.90;;;;;;5023458;28;20201;-78
2022/01/04 06:29:27;;;;;;;36.60;18.47;;;9.30;99.90;;;;;;5021749;28;20241;-78
2022/01/04 06:31:54;;;;;;;40.07;18.93;;;9.30;99.90;;;;;;5028732;28;20291;-79
2022/01/04 06:34:21;;;;;;;42.00;19.83;;;9.20;99.90;;;;;;5031154;28;20228;-78
2022/01/04 06:36:48;;;;;;;42.43;19.97;;;9.20;99.90;;;;;;5025329;28;20290;-78
2022/01/04 06:39:15;;;;;;;36.37;18.27;;;9.20;99.90;;;;;;5027937;28;20292;-78
2022/01/04 06:41:42;;;;;;;35.53;18.07;;;9.30;99.90;;;;;;5020009;28;20231;-78
2022/01/04 06:44:08;;;;;;;39.17;19.97;;;9.20;99.90;;;;;;5019855;28;20216;-78
2022/01/04 06:46:47;;;;;;;37.37;18.70;;;9.20;99.90;;;;;;5017659;28;20291;-77
2022/01/04 06:49:15;;;;;;;34.57;17.97;;;9.20;99.90;;;;;;5013742;28;20924;-78
2022/01/04 06:51:44;;;;;;;41.83;19.63;;;9.10;99.90;;;;;;5030711;28;20200;-78
2022/01/04 06:54:16;;;;;;;36.80;19.53;;;9.10;99.90;;;;;;5017492;28;20403;-78
2022/01/04 06:56:44;;;;;;;38.83;18.23;;;9.10;99.90;;;;;;5025352;28;20286;-78
2022/01/04 06:59:11;;;;;;;36.33;18.83;;;9.10;99.90;;;;;;5028463;28;20286;-79
2022/01/04 07:01:44;;;;;;;37.87;18.37;;;9.00;99.90;;;;;;5012821;28;20223;-81
2022/01/04 07:04:14;;;;;;;40.60;18.63;;;9.00;99.90;;;;;;5036364;28;20229;-77
2022/01/04 07:06:41;;;;;;;38.17;19.53;;;9.10;99.90;;;;;;5019595;28;20244;-81
2022/01/04 07:09:09;;;;;;;43.97;20.80;;;9.10;99.90;;;;;;5044646;28;20312;-80
2022/01/04 07:11:39;;;;;;;37.13;18.50;;;9.10;99.90;;;;;;5009858;28;20221;-80
2022/01/04 07:14:06;;;;;;;44.30;19.23;;;9.10;99.90;;;;;;5038583;28;20635;-80
2022/01/04 07:16:33;;;;;;;42.60;19.67;;;9.10;99.90;;;;;;5006195;28;20231;-79
2022/01/04 07:19:00;;;;;;;41.17;19.97;;;9.10;99.90;;;;;;5012897;28;20473;-79
2022/01/04 07:21:30;;;;;;;44.33;20.50;;;9.10;99.90;;;;;;5016059;28;20245;-79
2022/01/04 07:24:00;;;;;;;46.73;21.63;;;9.10;99.90;;;;;;5014951;28;20570;-80
2022/01/04 07:26:28;;;;;;;42.57;20.57;;;9.00;99.90;;;;;;5011064;28;20198;-79
2022/01/04 07:28:55;;;;;;;46.17;20.67;;;9.10;99.90;;;;;;5015523;28;20716;-80
2022/01/04 07:31:22;;;;;;;44.90;21.87;;;9.00;99.90;;;;;;5013562;28;20641;-80
2022/01/04 07:33:49;;;;;;;51.20;23.33;;;9.00;99.90;;;;;;5014899;28;20214;-79
2022/01/04 07:36:16;;;;;;;51.23;22.40;;;9.00;99.90;;;;;;5017102;28;20255;-79
2022/01/04 07:38:43;;;;;;;45.60;22.10;;;8.90;99.90;;;;;;5005128;28;20202;-79
2022/01/04 07:41:10;;;;;;;50.83;23.33;;;8.90;99.90;;;;;;5013168;28;20213;-79
2022/01/04 07:43:37;;;;;;;49.87;22.27;;;9.00;99.90;;;;;;5012717;28;20201;-80
2022/01/04 07:46:04;;;;;;;52.67;22.53;;;9.00;99.90;;;;;;5014055;28;20291;-80
2022/01/04 07:48:31;;;;;;;49.53;23.27;;;9.00;99.90;;;;;;5013232;28;20679;-78
2022/01/04 07:50:59;;;;;;;48.13;21.23;;;8.90;99.90;;;;;;5011868;28;20228;-79
2022/01/04 07:53:29;;;;;;;52.13;22.40;;;9.00;99.90;;;;;;5017633;28;20204;-78
2022/01/04 07:55:57;;;;;;;50.13;22.47;;;8.90;99.90;;;;;;5018096;28;20244;-78
2022/01/04 07:58:25;;;;;;;50.63;23.23;;;8.90;99.90;;;;;;5012338;28;20224;-80
2022/01/04 08:00:52;;;;;;;49.20;22.13;;;8.90;99.90;;;;;;5012594;28;20216;-80
2022/01/04 08:03:20;;;;;;;49.63;22.07;;;8.90;99.90;;;;;;5014806;28;20221;-80
2022/01/04 08:05:47;;;;;;;49.00;21.47;;;8.90;99.90;;;;;;5014357;28;20308;-79
2022/01/04 08:08:14;;;;;;;49.27;23.00;;;8.90;99.90;;;;;;5009441;28;20316;-79
2022/01/04 08:10:41;;;;;;;47.93;21.60;;;8.90;99.90;;;;;;5024984;28;20671;-78
2022/01/04 08:13:08;;;;;;;47.80;22.80;;;8.90;99.90;;;;;;5010217;28;20295;-78
2022/01/04 08:15:35;;;;;;;50.17;22.97;;;8.90;99.90;;;;;;5013231;28;20280;-79
2022/01/04 08:18:02;;;;;;;40.70;20.47;;;8.90;99.90;;;;;;5014518;28;20209;-79
2022/01/04 08:20:30;;;;;;;49.10;20.90;;;9.00;99.90;;;;;;5014996;28;20584;-78
2022/01/04 08:22:59;;;;;;;44.73;20.10;;;9.00;99.90;;;;;;5014728;28;20199;-79
2022/01/04 08:25:26;;;;;;;42.43;19.87;;;9.00;99.90;;;;;;5009185;28;20343;-78
2022/01/04 08:27:52;;;;;;;41.60;21.27;;;9.00;99.90;;;;;;5013668;28;20232;-79
2022/01/04 08:30:19;;;;;;;43.70;19.27;;;9.00;99.90;;;;;;5017250;28;20615;-78
2022/01/04 08:32:46;;;;;;;40.70;20.23;;;9.00;99.90;;;;;;5025750;28;20305;-78
2022/01/04 08:35:14;;;;;;;48.30;21.47;;;8.90;99.90;;;;;;5013913;28;20619;-79
2022/01/04 08:37:43;;;;;;;40.13;19.30;;;8.90;99.90;;;;;;5011378;28;20204;-79
2022/01/04 08:40:13;;;;;;;41.13;18.70;;;8.90;99.90;;;;;;5011690;28;20199;-80
2022/01/04 08:42:40;;;;;;;42.83;20.00;;;9.00;99.90;;;;;;5006226;28;20202;-78
2022/01/04 08:45:09;;;;;;;40.23;19.07;;;9.00;99.90;;;;;;5009721;28;20223;-80
2022/01/04 08:47:36;;;;;;;41.17;19.97;;;9.00;99.90;;;;;;5004512;28;20205;-77
2022/01/04 08:50:07;;;;;;;40.60;18.70;;;9.00;99.90;;;;;;5004328;28;20243;-78
2022/01/04 08:52:38;;;;;;;39.10;19.63;;;9.00;99.90;;;;;;5010112;28;20690;-79
2022/01/04 08:55:06;;;;;;;39.43;18.83;;;9.00;99.90;;;;;;5004228;28;20315;-78
2022/01/04 08:57:33;;;;;;;39.43;18.53;;;9.00;99.90;;;;;;5008509;28;20214;-77
2022/01/04 09:00:00;;;;;;;44.90;19.50;;;9.10;99.90;;;;;;5002765;28;20572;-77
2022/01/04 09:02:31;;;;;;;45.60;20.70;;;9.10;99.90;;;;;;5025238;28;20696;-77
2022/01/04 09:04:59;;;;;;;44.47;19.03;;;9.10;99.90;;;;;;5013261;28;20316;-80
2022/01/04 09:07:28;;;;;;;43.57;18.80;;;9.10;99.90;;;;;;5004419;28;20303;-82
2022/01/04 09:09:55;;;;;;;43.90;19.50;;;9.10;99.90;;;;;;5004720;28;20261;-78
2022/01/04 09:12:38;;;;;;;48.43;18.93;;;9.10;99.90;;;;;;5005178;28;20216;-78
2022/01/04 09:15:27;;;;;;;44.90;19.50;;;9.00;99.90;;;;;;5039576;28;20971;-80
2022/01/04 09:20:40;;;;;;;45.20;20.43;;;9.10;99.90;;;;;;5012242;28;20249;-80
2022/01/04 09:23:08;;;;;;;44.43;19.73;;;9.10;99.90;;;;;;5016671;28;20209;-79
2022/01/04 09:25:35;;;;;;;44.27;19.33;;;9.10;99.90;;;;;;5039060;28;20656;-80
2022/01/04 09:28:08;;;;;;;42.83;18.77;;;9.10;99.90;;;;;;5023817;28;20232;-78
2022/01/04 09:30:35;;;;;;;41.57;19.10;;;9.10;99.90;;;;;;5013340;28;20190;-80
2022/01/04 09:33:05;;;;;;;40.97;19.33;;;9.10;99.90;;;;;;5015257;28;20218;-79
2022/01/04 09:35:33;;;;;;;39.20;18.43;;;9.20;99.90;;;;;;5006024;28;20656;-79
2022/01/04 09:38:02;;;;;;;34.47;18.17;;;9.20;99.90;;;;;;5001474;28;20205;-79
2022/01/04 09:40:37;;;;;;;38.53;17.07;;;9.20;99.90;;;;;;5043215;28;20209;-80
2022/01/04 09:43:06;;;;;;;39.63;18.00;;;9.10;99.90;;;;;;5009483;28;20224;-79
2022/01/04 09:45:33;;;;;;;36.60;17.00;;;9.20;99.90;;;;;;5010961;28;20301;-79
2022/01/04 09:48:01;;;;;;;37.93;16.93;;;9.20;99.90;;;;;;5008801;28;20201;-80
2022/01/04 09:50:28;;;;;;;35.43;16.93;;;9.20;99.90;;;;;;5011096;28;20304;-79
2022/01/04 09:52:56;;;;;;;37.73;18.47;;;9.20;99.90;;;;;;5007503;28;20580;-79
2022/01/04 09:55:23;;;;;;;36.90;17.70;;;9.20;99.90;;;;;;4999210;28;20232;-82
2022/01/04 09:57:50;;;;;;;40.43;16.60;;;9.30;99.90;;;;;;5009794;28;20352;-80
2022/01/04 10:00:18;;;;;;;34.57;16.93;;;9.30;99.90;;;;;;5005188;28;20284;-81
2022/01/04 10:02:52;;;;;;;38.73;18.50;;;9.30;99.90;;;;;;5007066;28;20212;-80
2022/01/04 10:05:22;;;;;;;37.27;17.23;;;9.30;99.90;;;;;;5004141;28;20221;-81
2022/01/04 10:08:06;;;;;;;32.37;16.27;;;9.20;99.90;;;;;;5009525;28;20243;-81
2022/01/04 10:10:34;;;;;;;42.23;17.77;;;9.30;99.90;;;;;;5007226;28;20597;-79
2022/01/04 10:13:14;;;;;;;37.47;17.13;;;9.30;99.90;;;;;;5008516;28;20300;-81
2022/01/04 10:15:42;;;;;;;35.90;16.97;;;9.30;99.90;;;;;;5011304;28;20774;-80
2022/01/04 10:18:12;;;;;;;39.47;16.70;;;9.40;99.90;;;;;;5006322;28;20297;-80
2022/01/04 10:20:45;;;;;;;35.63;17.10;;;9.50;99.90;;;;;;5013727;28;20219;-80
2022/01/04 10:23:17;;;;;;;36.90;17.00;;;9.50;99.90;;;;;;5011771;28;20211;-80
2022/01/04 10:25:45;;;;;;;35.97;17.80;;;9.60;99.90;;;;;;5016070;28;20297;-80
2022/01/04 10:28:26;;;;;;;35.37;16.27;;;9.70;99.90;;;;;;5008886;28;20210;-80
2022/01/04 10:30:53;;;;;;;31.40;15.20;;;9.80;99.90;;;;;;5021627;28;20254;-79
2022/01/04 10:33:22;;;;;;;31.90;15.10;;;9.80;99.90;;;;;;5015452;28;20206;-79
2022/01/04 10:35:52;;;;;;;30.17;14.33;;;9.80;99.90;;;;;;4997393;28;20245;-79
2022/01/04 10:38:26;;;;;;;28.97;12.23;;;9.90;99.90;;;;;;5014677;28;20211;-80
2022/01/04 10:41:02;;;;;;;27.27;12.20;;;9.90;99.90;;;;;;5006868;28;20692;-80
2022/01/04 10:43:36;;;;;;;23.93;11.77;;;9.80;99.90;;;;;;5014107;28;20593;-81
2022/01/04 10:46:06;;;;;;;23.87;11.40;;;9.90;99.90;;;;;;5022419;28;20213;-80
2022/01/04 10:48:41;;;;;;;28.00;12.57;;;9.90;99.90;;;;;;5020550;28;20249;-80
2022/01/04 10:51:15;;;;;;;22.80;11.43;;;9.80;99.90;;;;;;5014799;28;20277;-82
2022/01/04 10:53:44;;;;;;;28.07;11.83;;;9.80;99.90;;;;;;5015833;28;20294;-82
2022/01/04 10:56:15;;;;;;;25.97;11.83;;;9.80;99.90;;;;;;5037531;28;20234;-80
2022/01/04 10:58:44;;;;;;;24.63;11.57;;;9.80;99.90;;;;;;5023118;28;20199;-78
2022/01/04 11:01:15;;;;;;;22.53;11.50;;;9.70;99.90;;;;;;5023774;28;20210;-78
2022/01/04 11:03:48;;;;;;;23.87;10.77;;;9.70;99.90;;;;;;5033038;28;20252;-80
2022/01/04 11:06:26;;;;;;;24.53;11.83;;;9.80;99.90;;;;;;5030304;28;20234;-80
2022/01/04 11:08:53;;;;;;;20.83;9.80;;;9.70;99.90;;;;;;5028804;28;20202;-80
2022/01/04 11:11:21;;;;;;;22.30;10.17;;;9.70;99.90;;;;;;5015221;28;20203;-80
2022/01/04 11:13:51;;;;;;;20.40;9.80;;;9.70;99.90;;;;;;5016980;28;20206;-83
2022/01/04 11:16:22;;;;;;;19.23;9.37;;;9.70;99.90;;;;;;5014834;28;20264;-81
2022/01/04 11:18:52;;;;;;;19.97;9.63;;;9.80;99.90;;;;;;5022286;28;20511;-80
2022/01/04 11:21:25;;;;;;;17.20;9.60;;;9.70;99.90;;;;;;5022261;28;20221;-83
2022/01/04 11:23:54;;;;;;;20.47;9.27;;;9.70;99.90;;;;;;5030928;28;20209;-80
2022/01/04 11:26:21;;;;;;;19.63;9.50;;;9.80;99.90;;;;;;5023881;28;20283;-80
2022/01/04 11:28:50;;;;;;;21.63;9.37;;;9.70;99.90;;;;;;5019160;28;20203;-78
2022/01/04 11:31:49;;;;;;;26.23;9.47;;;9.80;99.90;;;;;;5021126;28;20206;-77
2022/01/04 11:34:42;;;;;;;16.83;6.23;;;9.70;99.90;;;;;;5021616;28;20727;-81
2022/01/04 11:37:20;;;;;;;10.70;4.67;;;9.60;99.90;;;;;;5014775;28;20240;-80
2022/01/04 11:39:47;;;;;;;15.00;4.60;;;9.50;99.90;;;;;;5005652;28;20205;-81
2022/01/04 11:42:37;;;;;;;10.60;4.80;;;9.30;99.90;;;;;;5008498;28;20271;-82
2022/01/04 11:45:07;;;;;;;8.00;3.80;;;9.20;99.90;;;;;;5028222;28;20205;-81
2022/01/04 11:47:37;;;;;;;9.10;4.00;;;9.10;99.90;;;;;;5013349;28;20239;-81
2022/01/04 11:50:16;;;;;;;7.47;3.80;;;9.00;99.90;;;;;;5006605;28;20229;-80
2022/01/04 11:52:49;;;;;;;5.73;2.43;;;9.00;99.90;;;;;;5026388;28;20616;-80
2022/01/04 11:55:17;;;;;;;2.97;1.90;;;8.90;99.90;;;;;;5010551;28;20242;-83
2022/01/04 11:57:44;;;;;;;5.13;1.70;;;8.90;99.90;;;;;;5025940;28;20234;-82
2022/01/04 12:00:26;;;;;;;4.77;1.57;;;8.90;99.90;;;;;;5032014;28;20661;-82
2022/01/04 12:03:11;;;;;;;2.90;1.73;;;8.80;99.90;;;;;;5004443;28;20202;-83
2022/01/04 12:06:13;;;;;;;6.37;1.73;;;8.80;99.90;;;;;;5010340;28;20312;-79
2022/01/04 12:08:51;;;;;;;3.33;1.53;;;8.70;99.90;;;;;;5006155;28;20206;-82
2022/01/04 12:11:26;;;;;;;3.47;1.40;;;8.60;99.90;;;;;;5009908;28;20221;-81
2022/01/04 12:13:58;;;;;;;4.50;1.47;;;8.70;99.90;;;;;;5009167;28;20541;-83
2022/01/04 12:16:42;;;;;;;6.73;2.03;;;8.70;99.90;;;;;;5023437;28;20246;-81
2022/01/04 12:19:11;;;;;;;6.77;2.17;;;8.70;99.90;;;;;;5007494;28;20601;-83
2022/01/04 12:21:48;;;;;;;5.27;1.40;;;8.60;99.90;;;;;;5001587;28;20207;-80
2022/01/04 12:24:21;;;;;;;6.60;2.00;;;8.60;99.90;;;;;;5005168;28;20222;-82
2022/01/04 12:27:07;;;;;;;3.17;1.97;;;8.70;99.90;;;;;;5026650;28;20208;-82
2022/01/04 12:29:34;;;;;;;3.23;1.47;;;8.60;99.90;;;;;;5006316;28;20214;-83
2022/01/04 12:32:04;;;;;;;4.73;1.80;;;8.60;99.90;;;;;;5008220;28;20293;-81
2022/01/04 12:34:38;;;;;;;4.07;1.50;;;8.60;99.90;;;;;;5004316;28;20261;-82
2022/01/04 12:37:09;;;;;;;4.43;1.70;;;8.60;99.90;;;;;;5010885;28;20752;-83
2022/01/04 12:39:40;;;;;;;2.63;1.60;;;8.60;99.90;;;;;;5030893;28;20764;-84
2022/01/04 12:42:15;;;;;;;3.70;1.20;;;8.60;99.90;;;;;;5014973;28;20681;-82
2022/01/04 12:44:42;;;;;;;5.43;1.67;;;8.60;99.90;;;;;;5019114;28;20424;-81
2022/01/04 12:47:10;;;;;;;5.03;1.50;;;8.50;99.90;;;;;;5007167;28;21134;-82
2022/01/04 12:49:38;;;;;;;2.20;1.27;;;8.60;99.90;;;;;;5022761;28;20226;-79
2022/01/04 12:52:08;;;;;;;1.70;1.40;;;8.60;99.90;;;;;;4999731;28;20206;-83
2022/01/04 12:54:38;;;;;;;4.27;1.90;;;8.50;99.90;;;;;;5002519;28;20568;-80
2022/01/04 12:57:08;;;;;;;3.20;1.67;;;8.50;99.90;;;;;;5007071;28;20321;-81